createdAt,value
2019-01-27T04:01:02.510Z,0.00
2019-01-27T04:02:02.851Z,0.00
2019-01-27T04:03:02.703Z,0.00
2019-01-27T04:04:02.871Z,0.00
2019-01-27T04:05:03.015Z,0.00
2019-01-27T04:06:03.126Z,0.00
2019-01-27T04:07:03.299Z,0.00
2019-01-27T04:08:03.414Z,0.00
2019-01-27T04:09:03.590Z,0.00
2019-01-27T04:10:03.763Z,0.00
2019-01-27T04:11:03.971Z,0.00
2019-01-27T04:12:04.147Z,0.00
2019-01-27T04:13:04.261Z,0.00
2019-01-27T04:14:04.381Z,0.00
2019-01-27T04:15:04.534Z,0.00
2019-01-27T04:16:04.693Z,0.00
2019-01-27T04:17:04.818Z,0.00
2019-01-27T04:18:05.043Z,0.00
2019-01-27T04:19:05.160Z,0.00
2019-01-27T04:20:05.424Z,0.00
2019-01-27T04:21:05.546Z,0.00
2019-01-27T04:22:05.709Z,0.00
2019-01-27T04:23:05.810Z,0.00
2019-01-27T04:24:05.994Z,0.00
2019-01-27T04:25:06.190Z,0.00
2019-01-27T04:26:06.329Z,0.00
2019-01-27T04:27:06.512Z,0.00
2019-01-27T04:28:06.634Z,0.00
2019-01-27T04:29:06.812Z,0.00
2019-01-27T04:30:06.987Z,0.00
2019-01-27T04:31:07.087Z,0.00
2019-01-27T04:32:07.347Z,0.00
2019-01-27T04:33:07.513Z,0.00
2019-01-27T04:34:07.662Z,0.00
2019-01-27T04:35:07.809Z,0.00
2019-01-27T04:36:07.963Z,0.00
2019-01-27T04:37:08.165Z,0.00
2019-01-27T04:38:08.327Z,0.00
2019-01-27T04:39:08.571Z,0.00
2019-01-27T04:40:08.631Z,0.00
2019-01-27T04:41:08.795Z,0.00
2019-01-27T04:42:09.029Z,0.00
2019-01-27T04:43:09.118Z,0.00
2019-01-27T04:44:09.315Z,0.00
2019-01-27T04:45:09.493Z,0.00
2019-01-27T04:46:09.565Z,0.00
2019-01-27T04:47:09.803Z,0.00
2019-01-27T04:48:10.024Z,0.00
2019-01-27T04:49:10.161Z,0.00
2019-01-27T04:50:10.291Z,0.00
2019-01-27T04:51:10.479Z,0.00
2019-01-27T04:52:10.687Z,0.00
2019-01-27T04:53:10.817Z,0.00
2019-01-27T04:54:10.977Z,0.00
2019-01-27T04:55:11.130Z,0.00
2019-01-27T04:56:11.257Z,0.00
2019-01-27T04:57:11.457Z,0.00
2019-01-27T04:58:11.645Z,0.00
2019-01-27T04:59:11.790Z,0.00
2019-01-27T05:00:12.151Z,0.00
2019-01-27T05:01:12.155Z,0.00
2019-01-27T05:02:12.199Z,0.00
2019-01-27T05:03:12.357Z,0.00
2019-01-27T05:04:12.552Z,0.00
2019-01-27T05:05:12.693Z,0.00
2019-01-27T05:06:12.959Z,0.00
2019-01-27T05:07:13.124Z,0.00
2019-01-27T05:08:13.227Z,0.00
2019-01-27T05:09:13.387Z,0.00
2019-01-27T05:10:13.508Z,0.00
2019-01-27T05:11:13.716Z,0.00
2019-01-27T05:12:13.867Z,0.00
2019-01-27T05:13:14.019Z,0.00
2019-01-27T05:14:14.215Z,0.00
2019-01-27T05:15:14.311Z,0.00
2019-01-27T05:16:14.516Z,0.00
2019-01-27T05:17:14.635Z,0.00
2019-01-27T05:18:14.848Z,0.00
2019-01-27T05:19:14.932Z,0.00
2019-01-27T05:20:15.089Z,0.00
2019-01-27T05:21:15.359Z,0.00
2019-01-27T05:22:15.508Z,0.00
2019-01-27T05:23:15.592Z,0.00
2019-01-27T05:24:15.764Z,0.00
2019-01-27T05:25:15.985Z,0.00
2019-01-27T05:26:16.080Z,0.00
2019-01-27T05:27:16.243Z,0.00
2019-01-27T05:28:17.184Z,0.00
2019-01-27T05:29:16.599Z,0.00
2019-01-27T05:30:16.726Z,0.00
2019-01-27T05:31:16.884Z,0.00
2019-01-27T05:32:17.014Z,0.00
2019-01-27T05:33:17.225Z,0.00
2019-01-27T05:34:17.397Z,0.00
2019-01-27T05:35:17.589Z,0.00
2019-01-27T05:36:17.639Z,0.00
2019-01-27T05:37:17.848Z,0.00
2019-01-27T05:38:17.992Z,0.00
2019-01-27T05:39:18.169Z,0.00
2019-01-27T05:40:18.269Z,0.00
2019-01-27T05:41:18.469Z,0.00
2019-01-27T05:42:18.651Z,0.00
2019-01-27T05:43:18.779Z,0.00
2019-01-27T05:44:18.991Z,0.00
2019-01-27T05:45:19.136Z,0.00
2019-01-27T05:46:19.287Z,0.00
2019-01-27T05:47:19.432Z,0.00
2019-01-27T05:48:19.609Z,0.00
2019-01-27T05:49:19.766Z,0.00
2019-01-27T05:50:19.897Z,0.00
2019-01-27T05:51:20.089Z,0.00
2019-01-27T05:52:21.150Z,0.00
2019-01-27T05:53:20.486Z,0.00
2019-01-27T05:54:20.615Z,0.00
2019-01-27T05:55:20.743Z,0.00
2019-01-27T05:56:20.983Z,0.00
2019-01-27T05:57:21.083Z,0.00
2019-01-27T05:58:21.293Z,0.00
2019-01-27T05:59:21.427Z,0.00
2019-01-27T06:00:21.521Z,0.00
2019-01-27T06:01:21.769Z,0.00
2019-01-27T06:02:21.954Z,0.00
2019-01-27T06:03:22.087Z,0.00
2019-01-27T06:04:22.264Z,0.00
2019-01-27T06:05:22.407Z,0.00
2019-01-27T06:06:22.572Z,0.00
2019-01-27T06:07:22.770Z,0.00
2019-01-27T06:08:22.922Z,0.00
2019-01-27T06:09:23.084Z,0.00
2019-01-27T06:10:23.206Z,0.00
2019-01-27T06:11:23.422Z,0.00
2019-01-27T06:12:23.519Z,0.00
2019-01-27T06:13:23.744Z,0.00
2019-01-27T06:14:23.925Z,0.00
2019-01-27T06:15:24.081Z,0.00
2019-01-27T06:16:24.214Z,0.00
2019-01-27T06:17:24.367Z,0.00
2019-01-27T06:18:24.552Z,0.00
2019-01-27T06:19:24.696Z,0.00
2019-01-27T06:20:24.795Z,0.00
2019-01-27T06:21:25.013Z,0.00
2019-01-27T06:22:25.185Z,0.00
2019-01-27T06:23:25.348Z,0.00
2019-01-27T06:24:25.549Z,0.00
2019-01-27T06:25:26.209Z,0.00
2019-01-27T06:26:25.823Z,0.00
2019-01-27T06:27:25.917Z,0.00
2019-01-27T06:28:26.073Z,0.00
2019-01-27T06:29:26.278Z,0.00
2019-01-27T06:30:26.426Z,0.00
2019-01-27T06:31:26.531Z,0.00
2019-01-27T06:32:26.707Z,0.00
2019-01-27T06:33:26.834Z,0.00
2019-01-27T06:34:27.056Z,0.00
2019-01-27T06:35:27.188Z,0.00
2019-01-27T06:36:27.354Z,0.00
2019-01-27T06:37:27.466Z,0.00
2019-01-27T06:38:27.656Z,0.00
2019-01-27T06:39:27.842Z,0.00
2019-01-27T06:40:27.930Z,0.00
2019-01-27T06:41:28.144Z,0.00
2019-01-27T06:42:28.311Z,0.00
2019-01-27T06:43:28.434Z,0.00
2019-01-27T06:44:28.581Z,0.00
2019-01-27T06:45:28.782Z,0.00
2019-01-27T06:46:28.960Z,0.00
2019-01-27T06:47:29.076Z,0.00
2019-01-27T06:48:29.301Z,0.00
2019-01-27T06:49:29.472Z,0.00
2019-01-27T06:50:29.571Z,0.00
2019-01-27T06:51:29.735Z,0.00
2019-01-27T06:52:30.670Z,0.00
2019-01-27T06:53:30.069Z,0.00
2019-01-27T06:54:30.257Z,0.00
2019-01-27T06:55:30.483Z,0.00
2019-01-27T06:56:30.578Z,0.00
2019-01-27T06:57:30.743Z,0.00
2019-01-27T06:58:30.924Z,0.00
2019-01-27T06:59:31.064Z,0.00
2019-01-27T07:00:31.186Z,0.00
2019-01-27T07:01:31.346Z,0.00
2019-01-27T07:02:31.472Z,0.00
2019-01-27T07:03:31.623Z,0.00
2019-01-27T07:04:31.910Z,0.00
2019-01-27T07:05:31.991Z,0.00
2019-01-27T07:06:32.144Z,0.00
2019-01-27T07:07:32.278Z,0.00
2019-01-27T07:08:32.495Z,0.00
2019-01-27T07:09:32.612Z,0.00
2019-01-27T07:10:32.843Z,0.00
2019-01-27T07:11:32.917Z,0.00
2019-01-27T07:12:33.076Z,0.00
2019-01-27T07:13:33.290Z,0.00
2019-01-27T07:14:33.444Z,0.00
2019-01-27T07:15:33.594Z,0.00
2019-01-27T07:16:33.692Z,0.00
2019-01-27T07:17:33.906Z,5.63
2019-01-27T07:18:34.072Z,5.63
2019-01-27T07:19:34.283Z,5.63
2019-01-27T07:20:34.395Z,5.63
2019-01-27T07:21:34.555Z,5.63
2019-01-27T07:22:34.679Z,5.63
2019-01-27T07:23:34.823Z,5.63
2019-01-27T07:24:35.030Z,5.63
2019-01-27T07:25:35.157Z,5.63
2019-01-27T07:26:35.277Z,5.63
2019-01-27T07:27:35.513Z,5.63
2019-01-27T07:28:35.595Z,5.63
2019-01-27T07:29:35.801Z,5.63
2019-01-27T07:30:35.898Z,5.63
2019-01-27T07:31:36.145Z,5.63
2019-01-27T07:32:36.261Z,5.63
2019-01-27T07:33:36.398Z,5.63
2019-01-27T07:34:36.588Z,5.63
2019-01-27T07:35:36.704Z,5.63
2019-01-27T07:36:36.945Z,5.63
2019-01-27T07:37:37.104Z,11.25
2019-01-27T07:38:37.707Z,11.25
2019-01-27T07:39:37.534Z,11.25
2019-01-27T07:40:37.661Z,11.25
2019-01-27T07:41:37.870Z,11.25
2019-01-27T07:42:37.955Z,11.25
2019-01-27T07:43:38.173Z,16.88
2019-01-27T07:44:38.289Z,16.88
2019-01-27T07:45:38.544Z,16.88
2019-01-27T07:46:38.639Z,11.25
2019-01-27T07:47:38.794Z,16.88
2019-01-27T07:48:38.927Z,22.50
2019-01-27T07:49:39.091Z,16.88
2019-01-27T07:50:39.213Z,16.88
2019-01-27T07:51:39.382Z,16.88
2019-01-27T07:52:39.535Z,22.50
2019-01-27T07:53:39.730Z,28.13
2019-01-27T07:54:39.896Z,33.75
2019-01-27T07:55:40.066Z,28.13
2019-01-27T07:56:40.208Z,28.13
2019-01-27T07:57:40.328Z,22.50
2019-01-27T07:58:40.484Z,28.13
2019-01-27T07:59:40.651Z,33.75
2019-01-27T08:00:40.873Z,45.00
2019-01-27T08:01:40.955Z,56.25
2019-01-27T08:02:41.119Z,50.63
2019-01-27T08:03:41.267Z,39.38
2019-01-27T08:04:41.453Z,33.75
2019-01-27T08:05:41.544Z,39.38
2019-01-27T08:06:41.776Z,56.25
2019-01-27T08:07:41.909Z,56.25
2019-01-27T08:08:42.059Z,61.88
2019-01-27T08:09:42.240Z,56.25
2019-01-27T08:10:42.395Z,56.25
2019-01-27T08:11:42.555Z,61.88
2019-01-27T08:12:42.730Z,50.63
2019-01-27T08:13:42.831Z,45.00
2019-01-27T08:14:43.041Z,45.00
2019-01-27T08:15:43.137Z,50.63
2019-01-27T08:16:43.403Z,56.25
2019-01-27T08:17:43.500Z,61.88
2019-01-27T08:18:43.657Z,56.25
2019-01-27T08:19:43.844Z,56.25
2019-01-27T08:20:43.946Z,56.25
2019-01-27T08:21:44.131Z,45.00
2019-01-27T08:22:44.286Z,45.00
2019-01-27T08:23:44.481Z,39.38
2019-01-27T08:24:44.602Z,39.38
2019-01-27T08:25:44.779Z,45.00
2019-01-27T08:26:45.635Z,45.00
2019-01-27T08:27:45.181Z,50.63
2019-01-27T08:28:45.444Z,56.25
2019-01-27T08:29:45.534Z,50.63
2019-01-27T08:30:45.649Z,45.00
2019-01-27T08:31:45.834Z,39.38
2019-01-27T08:32:46.017Z,33.75
2019-01-27T08:33:46.177Z,33.75
2019-01-27T08:34:46.408Z,33.75
2019-01-27T08:35:46.502Z,39.38
2019-01-27T08:36:46.622Z,50.63
2019-01-27T08:37:46.833Z,61.88
2019-01-27T08:38:46.919Z,61.88
2019-01-27T08:39:47.117Z,73.13
2019-01-27T08:40:47.267Z,73.13
2019-01-27T08:41:47.457Z,67.50
2019-01-27T08:42:47.657Z,73.13
2019-01-27T08:43:47.757Z,50.63
2019-01-27T08:44:47.903Z,45.00
2019-01-27T08:45:48.121Z,56.25
2019-01-27T08:46:48.249Z,56.25
2019-01-27T08:47:48.514Z,61.88
2019-01-27T08:48:48.553Z,56.25
2019-01-27T08:49:48.774Z,73.13
2019-01-27T08:50:49.049Z,112.50
2019-01-27T08:51:49.218Z,163.13
2019-01-27T08:52:49.306Z,236.25
2019-01-27T08:53:49.546Z,241.88
2019-01-27T08:54:49.676Z,264.38
2019-01-27T08:55:49.892Z,309.38
2019-01-27T08:56:50.027Z,326.25
2019-01-27T08:57:50.158Z,360.00
2019-01-27T08:58:50.247Z,281.25
2019-01-27T08:59:50.513Z,219.38
2019-01-27T09:00:50.599Z,219.38
2019-01-27T09:01:50.819Z,258.75
2019-01-27T09:02:50.981Z,253.13
2019-01-27T09:03:51.109Z,247.50
2019-01-27T09:04:51.303Z,303.75
2019-01-27T09:05:51.469Z,320.63
2019-01-27T09:06:51.634Z,225.00
2019-01-27T09:07:51.723Z,185.63
2019-01-27T09:08:51.886Z,208.13
2019-01-27T09:09:52.036Z,236.25
2019-01-27T09:10:52.237Z,258.75
2019-01-27T09:11:52.448Z,270.00
2019-01-27T09:12:52.542Z,180.00
2019-01-27T09:13:52.642Z,118.13
2019-01-27T09:14:52.804Z,123.75
2019-01-27T09:15:52.979Z,135.00
2019-01-27T09:16:53.205Z,140.63
2019-01-27T09:17:53.316Z,123.75
2019-01-27T09:18:53.491Z,123.75
2019-01-27T09:19:53.729Z,129.38
2019-01-27T09:20:53.829Z,112.50
2019-01-27T09:21:54.019Z,101.25
2019-01-27T09:22:54.211Z,112.50
2019-01-27T09:23:54.407Z,135.00
2019-01-27T09:24:54.513Z,112.50
2019-01-27T09:25:54.685Z,101.25
2019-01-27T09:26:54.812Z,112.50
2019-01-27T09:27:55.006Z,135.00
2019-01-27T09:28:55.157Z,146.25
2019-01-27T09:29:55.305Z,146.25
2019-01-27T09:30:55.497Z,151.88
2019-01-27T09:31:55.594Z,174.38
2019-01-27T09:32:55.715Z,146.25
2019-01-27T09:33:55.873Z,140.63
2019-01-27T09:34:56.008Z,208.13
2019-01-27T09:35:56.186Z,180.00
2019-01-27T09:36:56.405Z,196.88
2019-01-27T09:37:56.567Z,281.25
2019-01-27T09:38:57.618Z,191.25
2019-01-27T09:39:56.914Z,196.88
2019-01-27T09:40:57.072Z,191.25
2019-01-27T09:41:57.263Z,180.00
2019-01-27T09:42:57.428Z,174.38
2019-01-27T09:43:57.573Z,191.25
2019-01-27T09:44:57.765Z,191.25
2019-01-27T09:46:05.422Z,191.25
2019-01-27T09:46:58.031Z,196.88
2019-01-27T09:47:58.232Z,213.75
2019-01-27T09:48:58.370Z,219.38
2019-01-27T09:49:58.483Z,202.50
2019-01-27T09:50:58.727Z,196.88
2019-01-27T09:51:58.867Z,191.25
2019-01-27T09:52:59.005Z,180.00
2019-01-27T09:53:59.150Z,174.38
2019-01-27T09:54:59.330Z,168.75
2019-01-27T09:55:59.461Z,174.38
2019-01-27T09:56:59.616Z,196.88
2019-01-27T09:57:59.770Z,213.75
2019-01-27T09:58:59.944Z,219.38
2019-01-27T10:00:00.242Z,241.88
2019-01-27T10:01:00.307Z,281.25
2019-01-27T10:02:00.501Z,303.75
2019-01-27T10:03:00.635Z,281.25
2019-01-27T10:04:00.737Z,320.63
2019-01-27T10:05:00.915Z,275.63
2019-01-27T10:06:01.051Z,270.00
2019-01-27T10:07:01.225Z,247.50
2019-01-27T10:08:01.434Z,225.00
2019-01-27T10:09:01.514Z,213.75
2019-01-27T10:10:01.712Z,247.50
2019-01-27T10:11:01.859Z,247.50
2019-01-27T10:12:01.996Z,303.75
2019-01-27T10:13:02.199Z,326.25
2019-01-27T10:14:02.407Z,286.88
2019-01-27T10:15:02.510Z,270.00
2019-01-27T10:16:02.748Z,236.25
2019-01-27T10:17:02.919Z,208.13
2019-01-27T10:18:03.017Z,219.38
2019-01-27T10:19:03.215Z,219.38
2019-01-27T10:20:03.382Z,258.75
2019-01-27T10:21:03.541Z,270.00
2019-01-27T10:22:03.727Z,275.63
2019-01-27T10:23:03.856Z,292.50
2019-01-27T10:24:04.027Z,331.88
2019-01-27T10:25:04.127Z,360.00
2019-01-27T10:26:04.342Z,382.50
2019-01-27T10:27:04.402Z,371.25
2019-01-27T10:28:04.636Z,376.88
2019-01-27T10:29:04.853Z,343.13
2019-01-27T10:30:04.909Z,382.50
2019-01-27T10:31:05.128Z,241.88
2019-01-27T10:32:05.268Z,180.00
2019-01-27T10:33:05.449Z,151.88
2019-01-27T10:34:05.661Z,151.88
2019-01-27T10:35:05.828Z,174.38
2019-01-27T10:36:05.982Z,191.25
2019-01-27T10:37:12.041Z,180.00
2019-01-27T10:38:06.290Z,157.50
2019-01-27T10:39:06.461Z,174.38
2019-01-27T10:40:09.235Z,225.00
2019-01-27T10:41:06.732Z,241.88
2019-01-27T10:42:06.956Z,230.63
2019-01-27T10:43:07.216Z,208.13
2019-01-27T10:44:07.461Z,241.88
2019-01-27T10:45:07.420Z,241.88
2019-01-27T10:46:07.676Z,225.00
2019-01-27T10:47:07.979Z,230.63
2019-01-27T10:48:07.930Z,258.75
2019-01-27T10:49:08.083Z,275.63
2019-01-27T10:50:08.282Z,270.00
2019-01-27T10:51:08.474Z,253.13
2019-01-27T10:52:08.646Z,241.88
2019-01-27T10:53:08.920Z,225.00
2019-01-27T10:54:08.882Z,219.38
2019-01-27T10:55:09.244Z,213.75
2019-01-27T10:56:09.409Z,213.75
2019-01-27T10:57:09.668Z,202.50
2019-01-27T10:58:09.577Z,185.63
2019-01-27T10:59:09.708Z,191.25
2019-01-27T11:00:09.844Z,208.13
2019-01-27T11:01:10.029Z,247.50
2019-01-27T11:02:10.361Z,247.50
2019-01-27T11:03:10.365Z,241.88
2019-01-27T11:04:10.548Z,247.50
2019-01-27T11:05:10.763Z,270.00
2019-01-27T11:06:10.903Z,270.00
2019-01-27T11:07:11.010Z,230.63
2019-01-27T11:08:11.193Z,225.00
2019-01-27T11:09:11.302Z,230.63
2019-01-27T11:10:11.508Z,264.38
2019-01-27T11:11:11.611Z,275.63
2019-01-27T11:12:11.797Z,264.38
2019-01-27T11:13:11.946Z,230.63
2019-01-27T11:14:12.136Z,219.38
2019-01-27T11:15:12.276Z,236.25
2019-01-27T11:16:12.455Z,230.63
2019-01-27T11:17:12.566Z,208.13
2019-01-27T11:18:12.744Z,213.75
2019-01-27T11:19:12.908Z,264.38
2019-01-27T11:20:13.044Z,270.00
2019-01-27T11:21:13.226Z,241.88
2019-01-27T11:22:13.375Z,196.88
2019-01-27T11:23:13.581Z,163.13
2019-01-27T11:24:13.734Z,157.50
2019-01-27T11:25:13.883Z,146.25
2019-01-27T11:26:14.081Z,151.88
2019-01-27T11:27:14.229Z,180.00
2019-01-27T11:28:14.378Z,213.75
2019-01-27T11:29:14.528Z,236.25
2019-01-27T11:30:14.774Z,298.13
2019-01-27T11:31:14.901Z,309.38
2019-01-27T11:32:15.069Z,348.75
2019-01-27T11:33:15.349Z,354.38
2019-01-27T11:34:15.380Z,410.63
2019-01-27T11:35:15.601Z,483.75
2019-01-27T11:36:15.749Z,382.50
2019-01-27T11:37:15.919Z,337.50
2019-01-27T11:38:16.070Z,348.75
2019-01-27T11:39:16.237Z,320.63
2019-01-27T11:40:16.435Z,326.25
2019-01-27T11:41:16.603Z,281.25
2019-01-27T11:42:16.718Z,253.13
2019-01-27T11:43:16.934Z,230.63
2019-01-27T11:44:17.179Z,236.25
2019-01-27T11:45:17.306Z,191.25
2019-01-27T11:46:17.410Z,151.88
2019-01-27T11:47:17.587Z,146.25
2019-01-27T11:48:17.740Z,146.25
2019-01-27T11:49:17.926Z,135.00
2019-01-27T11:50:18.040Z,118.13
2019-01-27T11:51:18.252Z,129.38
2019-01-27T11:52:18.360Z,140.63
2019-01-27T11:53:18.526Z,168.75
2019-01-27T11:54:18.759Z,219.38
2019-01-27T11:55:18.869Z,253.13
2019-01-27T11:56:19.083Z,258.75
2019-01-27T11:57:19.154Z,343.13
2019-01-27T11:58:19.385Z,770.63
2019-01-27T11:59:19.563Z,483.75
2019-01-27T12:00:19.710Z,444.38
2019-01-27T12:01:19.912Z,590.63
2019-01-27T12:02:20.012Z,562.50
2019-01-27T12:03:20.231Z,528.75
2019-01-27T12:04:20.336Z,427.50
2019-01-27T12:05:20.536Z,483.75
2019-01-27T12:06:20.674Z,663.75
2019-01-27T12:07:20.873Z,388.13
2019-01-27T12:08:20.996Z,388.13
2019-01-27T12:09:21.091Z,399.38
2019-01-27T12:10:21.307Z,438.75
2019-01-27T12:11:21.385Z,523.13
2019-01-27T12:12:21.685Z,691.88
2019-01-27T12:13:21.768Z,759.38
2019-01-27T12:14:21.886Z,708.75
2019-01-27T12:15:22.122Z,697.50
2019-01-27T12:16:22.372Z,551.25
2019-01-27T12:17:22.439Z,511.88
2019-01-27T12:18:22.655Z,399.38
2019-01-27T12:19:22.750Z,343.13
2019-01-27T12:20:22.934Z,286.88
2019-01-27T12:21:23.076Z,253.13
2019-01-27T12:22:23.271Z,241.88
2019-01-27T12:23:23.405Z,236.25
2019-01-27T12:24:23.593Z,247.50
2019-01-27T12:25:23.728Z,253.13
2019-01-27T12:26:23.888Z,247.50
2019-01-27T12:27:24.110Z,258.75
2019-01-27T12:28:24.313Z,275.63
2019-01-27T12:29:25.573Z,275.63
2019-01-27T12:30:24.549Z,264.38
2019-01-27T12:31:24.731Z,236.25
2019-01-27T12:32:24.968Z,213.75
2019-01-27T12:33:25.097Z,208.13
2019-01-27T12:34:25.238Z,213.75
2019-01-27T12:35:25.481Z,241.88
2019-01-27T12:36:25.613Z,258.75
2019-01-27T12:37:25.778Z,258.75
2019-01-27T12:38:25.892Z,275.63
2019-01-27T12:39:26.100Z,303.75
2019-01-27T12:40:26.249Z,303.75
2019-01-27T12:41:26.359Z,298.13
2019-01-27T12:42:26.595Z,309.38
2019-01-27T12:43:26.693Z,315.00
2019-01-27T12:44:26.897Z,315.00
2019-01-27T12:45:26.972Z,331.88
2019-01-27T12:46:27.154Z,315.00
2019-01-27T12:47:27.315Z,309.38
2019-01-27T12:48:27.508Z,298.13
2019-01-27T12:49:27.672Z,298.13
2019-01-27T12:50:27.781Z,303.75
2019-01-27T12:51:27.946Z,298.13
2019-01-27T12:52:28.168Z,360.00
2019-01-27T12:53:28.321Z,393.75
2019-01-27T12:54:28.471Z,421.88
2019-01-27T12:55:28.611Z,450.00
2019-01-27T12:56:28.732Z,517.50
2019-01-27T12:57:28.913Z,585.00
2019-01-27T12:58:29.195Z,669.38
2019-01-27T12:59:29.308Z,832.50
2019-01-27T13:00:29.470Z,838.13
2019-01-27T13:01:29.657Z,691.88
2019-01-27T13:02:29.770Z,669.38
2019-01-27T13:03:29.967Z,618.75
2019-01-27T13:04:30.188Z,585.00
2019-01-27T13:05:30.277Z,545.63
2019-01-27T13:06:30.494Z,489.38
2019-01-27T13:07:30.604Z,534.38
2019-01-27T13:08:30.705Z,607.50
2019-01-27T13:09:30.936Z,613.13
2019-01-27T13:10:31.091Z,568.13
2019-01-27T13:11:31.281Z,506.25
2019-01-27T13:12:31.396Z,405.00
2019-01-27T13:13:31.554Z,354.38
2019-01-27T13:14:31.770Z,303.75
2019-01-27T13:15:31.887Z,264.38
2019-01-27T13:16:32.047Z,258.75
2019-01-27T13:17:32.155Z,281.25
2019-01-27T13:18:32.363Z,348.75
2019-01-27T13:19:32.525Z,360.00
2019-01-27T13:20:32.674Z,320.63
2019-01-27T13:21:32.860Z,320.63
2019-01-27T13:22:33.097Z,292.50
2019-01-27T13:23:33.164Z,264.38
2019-01-27T13:24:33.349Z,264.38
2019-01-27T13:25:33.527Z,253.13
2019-01-27T13:26:33.714Z,607.50
2019-01-27T13:27:33.875Z,478.13
2019-01-27T13:28:34.042Z,466.88
2019-01-27T13:29:34.164Z,376.88
2019-01-27T13:30:34.274Z,292.50
2019-01-27T13:31:34.533Z,303.75
2019-01-27T13:32:34.631Z,303.75
2019-01-27T13:33:34.806Z,213.75
2019-01-27T13:34:34.900Z,168.75
2019-01-27T13:35:38.875Z,180.00
2019-01-27T13:36:35.260Z,174.38
2019-01-27T13:37:35.518Z,151.88
2019-01-27T13:38:35.595Z,123.75
2019-01-27T13:39:35.799Z,112.50
2019-01-27T13:40:35.902Z,84.38
2019-01-27T13:41:36.086Z,78.75
2019-01-27T13:42:36.224Z,56.25
2019-01-27T13:43:36.429Z,45.00
2019-01-27T13:44:36.553Z,56.25
2019-01-27T13:45:36.818Z,95.63
2019-01-27T13:46:36.910Z,135.00
2019-01-27T13:47:37.060Z,185.63
2019-01-27T13:48:37.211Z,236.25
2019-01-27T13:49:37.366Z,292.50
2019-01-27T13:50:37.566Z,343.13
2019-01-27T13:51:37.696Z,348.75
2019-01-27T13:52:37.905Z,337.50
2019-01-27T13:53:38.091Z,326.25
2019-01-27T13:54:38.294Z,303.75
2019-01-27T13:55:38.549Z,275.63
2019-01-27T13:56:38.568Z,281.25
2019-01-27T13:57:38.780Z,258.75
2019-01-27T13:58:38.881Z,236.25
2019-01-27T13:59:39.080Z,213.75
2019-01-27T14:00:39.172Z,196.88
2019-01-27T14:01:39.315Z,185.63
2019-01-27T14:02:39.478Z,180.00
2019-01-27T14:03:39.652Z,163.13
2019-01-27T14:04:39.826Z,168.75
2019-01-27T14:05:40.062Z,157.50
2019-01-27T14:06:40.210Z,151.88
2019-01-27T14:07:40.327Z,140.63
2019-01-27T14:08:40.505Z,135.00
2019-01-27T14:09:40.589Z,140.63
2019-01-27T14:10:40.812Z,163.13
2019-01-27T14:11:40.923Z,174.38
2019-01-27T14:12:41.100Z,168.75
2019-01-27T14:13:41.229Z,151.88
2019-01-27T14:14:41.454Z,151.88
2019-01-27T14:15:41.556Z,146.25
2019-01-27T14:16:41.779Z,151.88
2019-01-27T14:17:41.873Z,151.88
2019-01-27T14:18:42.078Z,163.13
2019-01-27T14:19:42.261Z,185.63
2019-01-27T14:20:42.410Z,236.25
2019-01-27T14:21:42.595Z,213.75
2019-01-27T14:22:42.686Z,185.63
2019-01-27T14:23:42.857Z,163.13
2019-01-27T14:24:43.022Z,135.00
2019-01-27T14:25:43.238Z,123.75
2019-01-27T14:26:43.313Z,129.38
2019-01-27T14:27:43.504Z,135.00
2019-01-27T14:28:43.646Z,146.25
2019-01-27T14:29:43.817Z,129.38
2019-01-27T14:30:43.963Z,135.00
2019-01-27T14:31:44.158Z,151.88
2019-01-27T14:32:44.294Z,174.38
2019-01-27T14:33:44.425Z,196.88
2019-01-27T14:34:44.599Z,219.38
2019-01-27T14:35:44.810Z,219.38
2019-01-27T14:36:44.935Z,196.88
2019-01-27T14:37:45.049Z,213.75
2019-01-27T14:38:45.214Z,191.25
2019-01-27T14:39:45.412Z,191.25
2019-01-27T14:40:45.539Z,230.63
2019-01-27T14:41:45.713Z,219.38
2019-01-27T14:42:45.897Z,191.25
2019-01-27T14:43:46.118Z,241.88
2019-01-27T14:44:46.204Z,230.63
2019-01-27T14:45:46.335Z,185.63
2019-01-27T14:46:46.539Z,168.75
2019-01-27T14:47:46.739Z,157.50
2019-01-27T14:48:46.931Z,151.88
2019-01-27T14:49:47.010Z,146.25
2019-01-27T14:50:47.145Z,157.50
2019-01-27T14:51:47.354Z,146.25
2019-01-27T14:52:47.463Z,118.13
2019-01-27T14:53:47.680Z,101.25
2019-01-27T14:54:47.759Z,90.00
2019-01-27T14:55:47.959Z,90.00
2019-01-27T14:56:48.196Z,90.00
2019-01-27T14:57:48.239Z,84.38
2019-01-27T14:58:48.451Z,78.75
2019-01-27T14:59:48.625Z,78.75
2019-01-27T15:00:48.757Z,67.50
2019-01-27T15:01:48.935Z,73.13
2019-01-27T15:02:49.119Z,67.50
2019-01-27T15:03:49.302Z,61.88
2019-01-27T15:04:49.442Z,50.63
2019-01-27T15:05:49.585Z,56.25
2019-01-27T15:06:50.022Z,56.25
2019-01-27T15:07:50.043Z,45.00
2019-01-27T15:08:50.214Z,56.25
2019-01-27T15:09:50.314Z,56.25
2019-01-27T15:10:50.485Z,61.88
2019-01-27T15:11:50.638Z,67.50
2019-01-27T15:12:50.827Z,67.50
2019-01-27T15:13:50.941Z,56.25
2019-01-27T15:14:51.109Z,50.63
2019-01-27T15:15:51.249Z,50.63
2019-01-27T15:16:51.450Z,50.63
2019-01-27T15:17:51.626Z,45.00
2019-01-27T15:18:51.770Z,45.00
2019-01-27T15:19:51.900Z,39.38
2019-01-27T15:20:52.117Z,33.75
2019-01-27T15:21:52.237Z,39.38
2019-01-27T15:22:52.451Z,39.38
2019-01-27T15:23:52.597Z,39.38
2019-01-27T15:24:52.754Z,33.75
2019-01-27T15:25:52.879Z,33.75
2019-01-27T15:26:53.040Z,33.75
2019-01-27T15:27:53.183Z,33.75
2019-01-27T15:28:53.363Z,33.75
2019-01-27T15:29:53.520Z,33.75
2019-01-27T15:30:53.688Z,28.13
2019-01-27T15:31:53.812Z,28.13
2019-01-27T15:32:54.809Z,22.50
2019-01-27T15:33:54.168Z,22.50
2019-01-27T15:34:54.281Z,16.88
2019-01-27T15:35:54.399Z,16.88
2019-01-27T15:36:54.564Z,16.88
2019-01-27T15:37:54.750Z,16.88
2019-01-27T15:38:54.931Z,16.88
2019-01-27T15:39:55.166Z,16.88
2019-01-27T15:40:55.226Z,11.25
2019-01-27T15:41:55.366Z,11.25
2019-01-27T15:42:55.575Z,11.25
2019-01-27T15:43:55.733Z,11.25
2019-01-27T15:44:55.868Z,11.25
2019-01-27T15:45:56.014Z,5.63
2019-01-27T15:46:56.175Z,5.63
2019-01-27T15:47:56.332Z,5.63
2019-01-27T15:48:56.513Z,5.63
2019-01-27T15:49:56.686Z,5.63
2019-01-27T15:50:56.851Z,5.63
2019-01-27T15:51:56.951Z,5.63
2019-01-27T15:52:57.149Z,5.63
2019-01-27T15:53:57.298Z,5.63
2019-01-27T15:54:57.584Z,5.63
2019-01-27T15:55:57.658Z,5.63
2019-01-27T15:56:57.813Z,5.63
2019-01-27T15:57:58.007Z,0.00
2019-01-27T15:58:58.129Z,0.00
2019-01-27T15:59:58.305Z,0.00
2019-01-27T16:00:58.434Z,0.00
2019-01-27T16:01:58.622Z,0.00
2019-01-27T16:02:58.770Z,0.00
2019-01-27T16:03:58.959Z,0.00
2019-01-27T16:04:59.099Z,0.00
2019-01-27T16:05:59.280Z,0.00
2019-01-27T16:06:59.396Z,0.00
2019-01-27T16:07:59.532Z,0.00
2019-01-27T16:08:59.783Z,0.00
2019-01-27T16:09:59.910Z,0.00
2019-01-27T16:11:00.025Z,0.00
2019-01-27T16:12:00.223Z,0.00
2019-01-27T16:13:00.394Z,0.00
2019-01-27T16:14:00.654Z,0.00
2019-01-27T16:15:00.677Z,0.00
2019-01-27T16:16:00.869Z,0.00
2019-01-27T16:17:00.981Z,0.00
2019-01-27T16:18:01.128Z,0.00
2019-01-27T16:19:01.378Z,0.00
2019-01-27T16:20:01.448Z,0.00
2019-01-27T16:21:01.642Z,0.00
2019-01-27T16:22:01.972Z,0.00
2019-01-27T16:23:01.974Z,0.00
2019-01-27T16:24:02.108Z,0.00
2019-01-27T16:25:02.309Z,0.00
2019-01-27T16:26:02.466Z,0.00
2019-01-27T16:27:02.581Z,0.00
2019-01-27T16:28:02.741Z,0.00
2019-01-27T16:29:02.931Z,0.00
2019-01-27T16:30:03.120Z,0.00
2019-01-27T16:31:03.262Z,0.00
2019-01-27T16:32:03.373Z,0.00
2019-01-27T16:33:03.578Z,0.00
2019-01-27T16:34:03.758Z,0.00
2019-01-27T16:35:03.897Z,0.00
2019-01-27T16:36:03.989Z,0.00
2019-01-27T16:37:04.136Z,0.00
2019-01-27T16:38:04.341Z,0.00
2019-01-27T16:39:04.529Z,0.00
2019-01-27T16:40:04.663Z,0.00
2019-01-27T16:41:04.857Z,0.00
2019-01-27T16:42:05.028Z,0.00
2019-01-27T16:43:05.182Z,0.00
2019-01-27T16:44:05.362Z,0.00
2019-01-27T16:45:05.474Z,0.00
2019-01-27T16:46:05.585Z,0.00
2019-01-27T16:47:05.788Z,0.00
2019-01-27T16:48:05.945Z,0.00
2019-01-27T16:49:06.127Z,0.00
2019-01-27T16:50:06.258Z,0.00
2019-01-27T16:51:06.414Z,0.00
2019-01-27T16:52:06.632Z,0.00
2019-01-27T16:53:06.755Z,0.00